WetterOnline ( https://www.wetteronline.de )

Wetter aktuell Altfriesack

Aktuelles Wetter: Neuruppin - Alt Ruppin (50m)

6-stündlich | Neueste Meldungen
Ortszeit Temperatur Wetter
Sa, 18.09. 14:00 15.6° C bedeckt
Sa, 18.09. 8:00 13.6° C bewölkt
Sa, 18.09. 2:00 12.3° C bedeckt
Fr, 17.09. 20:00 13.5° C bedeckt
Fr, 17.09. 14:00 14.5° C bedeckt
Fr, 17.09. 8:00 13.8° C bedeckt
Fr, 17.09. 2:00 15.5° C bedeckt
Do, 16.09. 20:00 16.6° C Sprühregen
Ortszeit Temperatur Wetter
Sa, 18.09. 14:30 15.7° C bedeckt
Sa, 18.09. 14:20 15.7° C bedeckt
Sa, 18.09. 14:10 15.7° C bedeckt
Sa, 18.09. 14:00 15.6° C bedeckt
Sa, 18.09. 13:50 15.6° C bedeckt
Sa, 18.09. 13:40 15.8° C bedeckt
Sa, 18.09. 13:30 15.8° C bedeckt
Sa, 18.09. 13:00 16.3° C bedeckt
Sa, 18.09. 12:30 15.4° C bedeckt
Sa, 18.09. 12:00 15.9° C Sprühregen
Sa, 18.09. 11:30 16.8° C bedeckt
Ortszeit Relative Feuchte Sichtweite
Sa, 18.09. 14:00 79% 55 km
Sa, 18.09. 8:00 99% 19 km
Sa, 18.09. 2:00 89% 60 km
Fr, 17.09. 20:00 78% 60 km
Fr, 17.09. 14:00 80% 60 km
Fr, 17.09. 8:00 87% 60 km
Fr, 17.09. 2:00 88% 40 km
Do, 16.09. 20:00 82% 45 km
Ortszeit Relative Feuchte Sichtweite
Sa, 18.09. 14:30 78% 55 km
Sa, 18.09. 14:20 78% -
Sa, 18.09. 14:10 78% -
Sa, 18.09. 14:00 79% 55 km
Sa, 18.09. 13:50 79% -
Sa, 18.09. 13:40 81% -
Sa, 18.09. 13:30 80% 40 km
Sa, 18.09. 13:00 79% 65 km
Sa, 18.09. 12:30 87% 23 km
Sa, 18.09. 12:00 83% -
Sa, 18.09. 11:30 79% 45 km
Ortszeit Niederschlagsmenge Niederschlagsart
Sa, 18.09. 14:00 0.1 l/m2 in 6 Std. Regen
Sa, 18.09. 8:00 0.8 l/m2 in 12 Std. Regen
Sa, 18.09. 2:00 0.0 l/m2 in 6 Std. -
Fr, 17.09. 20:00 0.1 l/m2 in 12 Std. Regen
Fr, 17.09. 14:00 0.1 l/m2 in 6 Std. Regen
Fr, 17.09. 8:00 0.2 l/m2 in 12 Std. Regen
Fr, 17.09. 2:00 0.1 l/m2 in 6 Std. Regen
Do, 16.09. 20:00 0.1 l/m2 in 12 Std. Sprühregen
Ortszeit Niederschlagsmenge Niederschlagsart
Sa, 18.09. 14:30 0.0 l/m2 in 1 Std. -
Sa, 18.09. 14:20 keine Meldung -
Sa, 18.09. 14:10 keine Meldung -
Sa, 18.09. 14:00 0.1 l/m2 in 1 Std. Regen
Sa, 18.09. 13:50 keine Meldung -
Sa, 18.09. 13:40 keine Meldung -
Sa, 18.09. 13:30 0.1 l/m2 in 1 Std. Schnee
Sa, 18.09. 13:00 0.1 l/m2 in 1 Std. Regen
Sa, 18.09. 12:30 0.1 l/m2 in 1 Std. Schneeregen
Sa, 18.09. 12:00 0.1 l/m2 in 1 Std. Regen
Sa, 18.09. 11:30 0.0 l/m2 in 1 Std. -
Ortszeit Stärke Spitze Richtung
km/h Bft. km/h Grad Sektor
Sa, 18.09. 14:00 13 3 33 20° N
Sa, 18.09. 8:00 6 1 19 310° NW
Sa, 18.09. 2:00 7 2 14 280° W
Fr, 17.09. 20:00 7 2 25 300° NW
Fr, 17.09. 14:00 7 2 32 290° W
Fr, 17.09. 8:00 7 2 29 280° W
Fr, 17.09. 2:00 13 3 28 260° W
Do, 16.09. 20:00 11 2 28 250° W
Ortszeit Stärke Spitze Richtung
km/h Bft. km/h Grad Sektor
Sa, 18.09. 14:30 9 2 24 30° NO
Sa, 18.09. 14:20 9 2 - 30° NO
Sa, 18.09. 14:10 11 2 - 20° N
Sa, 18.09. 14:00 13 3 33 20° N
Sa, 18.09. 13:50 13 3 - 20° N
Sa, 18.09. 13:40 11 2 - 30° NO
Sa, 18.09. 13:30 13 3 24 40° NO
Sa, 18.09. 13:00 9 2 30 20° N
Sa, 18.09. 12:30 11 2 29 10° N
Sa, 18.09. 12:00 9 2 26 10° N
Sa, 18.09. 11:30 11 2 25 30° NO
Ortszeit Untergrenze Bedeckung Gattung
total tief tief mittel hoch
Sa, 18.09. 14:00 450 m 8/8 8/8 - - -
Sa, 18.09. 8:00 90 m 7/8 7/8 - - -
Sa, 18.09. 2:00 480 m 8/8 8/8 - - -
Fr, 17.09. 20:00 1230 m 8/8 8/8 - - -
Fr, 17.09. 14:00 570 m 8/8 8/8 - - -
Fr, 17.09. 8:00 480 m 8/8 8/8 - - -
Fr, 17.09. 2:00 420 m 8/8 8/8 - - -
Do, 16.09. 20:00 630 m 8/8 8/8 - - -
Ortszeit Bedeckungsgrad in Achtel und Wolkenuntergrenze
Sa, 18.09. 14:30 4(540m) 8(960m)
Sa, 18.09. 14:20 4(540m) 8(960m)
Sa, 18.09. 14:10 3(510m) 7(900m) 8(1020m)
Sa, 18.09. 14:00 1(450m) 6(810m) 8(1020m)
Sa, 18.09. 13:50 1(450m) 6(810m) 8(1020m)
Sa, 18.09. 13:40 2(480m) 4(840m) 8(1020m)
Sa, 18.09. 13:30 3(450m) 7(840m) 8(1080m)
Sa, 18.09. 13:00 2(450m) 6(930m) 8(1170m)
Sa, 18.09. 12:30 2(390m) 5(600m) 8(810m)
Sa, 18.09. 12:00 5(480m) 7(720m) 8(1290m)
Sa, 18.09. 11:30 5(390m) 6(510m) 8(1170m)
Ortszeit Luftdruck NN (hPa) Tendenz (hPa in 3 Std.)
Sa, 18.09. 14:00 1017 + 1,1
Sa, 18.09. 8:00 1014 + 0,5
Sa, 18.09. 2:00 1014 - 0,3
Fr, 17.09. 20:00 1014 + 0,2
Fr, 17.09. 14:00 1013 + 0,4
Fr, 17.09. 8:00 1012 + 0,2
Fr, 17.09. 2:00 1012 - 0,2
Do, 16.09. 20:00 1013 + 0,2
Ortszeit Luftdruck NN (hPa) Tendenz (hPa in 3 Std.)
Sa, 18.09. 14:30 1017 + 1,2
Sa, 18.09. 14:20 1017 keine Meldung
Sa, 18.09. 14:10 1017 keine Meldung
Sa, 18.09. 14:00 1017 + 1,1
Sa, 18.09. 13:50 1017 keine Meldung
Sa, 18.09. 13:40 1017 keine Meldung
Sa, 18.09. 13:30 1017 + 1,3
Sa, 18.09. 13:00 1016 + 1,2
Sa, 18.09. 12:30 1016 + 1,6
Sa, 18.09. 12:00 1016 + 1,5
Sa, 18.09. 11:30 1016 + 1,5
Ortszeit Schneehöhe (cm)
Sa, 18.09. 14:00 -
Sa, 18.09. 8:00 -
Sa, 18.09. 2:00 -
Fr, 17.09. 20:00 -
Fr, 17.09. 14:00 -
Fr, 17.09. 8:00 -
Fr, 17.09. 2:00 -
Do, 16.09. 20:00 -
Ortszeit Schneehöhe (cm)
Sa, 18.09. 14:30 -
Sa, 18.09. 14:20 -
Sa, 18.09. 14:10 -
Sa, 18.09. 14:00 -
Sa, 18.09. 13:50 -
Sa, 18.09. 13:40 -
Sa, 18.09. 13:30 -
Sa, 18.09. 13:00 -
Sa, 18.09. 12:30 -
Sa, 18.09. 12:00 -
Sa, 18.09. 11:30 -
Link zu dieser Seite / Seite empfehlen

Das Wetter in ...